sensor_id;sensor_type;location;lat;lon;timestamp;temperature;humidity
55369;DHT22;41247;49.736;8.752;2024-01-11T00:03:15;-4.50;99.90
55369;DHT22;41247;49.736;8.752;2024-01-11T00:06:55;-4.40;99.90
55369;DHT22;41247;49.736;8.752;2024-01-11T00:10:36;-4.40;99.90
55369;DHT22;41247;49.736;8.752;2024-01-11T00:14:17;-4.40;99.90
55369;DHT22;41247;49.736;8.752;2024-01-11T00:17:57;-4.40;99.90
55369;DHT22;41247;49.736;8.752;2024-01-11T00:21:38;-4.40;99.90
55369;DHT22;41247;49.736;8.752;2024-01-11T00:25:20;-4.30;99.90
55369;DHT22;41247;49.736;8.752;2024-01-11T00:29:01;-4.30;99.90
55369;DHT22;41247;49.736;8.752;2024-01-11T00:32:41;-4.20;99.90
55369;DHT22;41247;49.736;8.752;2024-01-11T00:36:22;-4.20;99.90
55369;DHT22;41247;49.736;8.752;2024-01-11T00:40:03;-4.10;99.90
55369;DHT22;41247;49.736;8.752;2024-01-11T00:43:44;-4.00;99.90
55369;DHT22;41247;49.736;8.752;2024-01-11T00:47:24;-3.90;99.90
55369;DHT22;41247;49.736;8.752;2024-01-11T00:51:05;-3.80;99.90
55369;DHT22;41247;49.736;8.752;2024-01-11T00:54:46;-3.80;99.90
55369;DHT22;41247;49.736;8.752;2024-01-11T00:58:27;-3.70;99.90
55369;DHT22;41247;49.736;8.752;2024-01-11T01:02:08;-3.70;99.90
55369;DHT22;41247;49.736;8.752;2024-01-11T01:05:49;-3.70;99.90
55369;DHT22;41247;49.736;8.752;2024-01-11T01:09:29;-3.70;99.90
55369;DHT22;41247;49.736;8.752;2024-01-11T01:13:10;-3.70;99.90
55369;DHT22;41247;49.736;8.752;2024-01-11T01:16:51;-3.70;99.90
55369;DHT22;41247;49.736;8.752;2024-01-11T01:20:31;-3.80;99.90
55369;DHT22;41247;49.736;8.752;2024-01-11T01:24:12;-3.80;99.90
55369;DHT22;41247;49.736;8.752;2024-01-11T01:27:52;-3.80;99.90
55369;DHT22;41247;49.736;8.752;2024-01-11T01:31:33;-3.90;99.90
55369;DHT22;41247;49.736;8.752;2024-01-11T01:35:14;-3.90;99.90
55369;DHT22;41247;49.736;8.752;2024-01-11T01:38:54;-3.90;99.90
55369;DHT22;41247;49.736;8.752;2024-01-11T01:42:35;-4.00;99.90
55369;DHT22;41247;49.736;8.752;2024-01-11T01:46:22;-4.00;99.90
55369;DHT22;41247;49.736;8.752;2024-01-11T01:50:04;-4.00;99.90
55369;DHT22;41247;49.736;8.752;2024-01-11T01:53:45;-4.00;99.90
55369;DHT22;41247;49.736;8.752;2024-01-11T01:57:26;-4.10;99.90
55369;DHT22;41247;49.736;8.752;2024-01-11T02:01:08;-4.10;99.90
55369;DHT22;41247;49.736;8.752;2024-01-11T02:04:48;-4.10;99.90
55369;DHT22;41247;49.736;8.752;2024-01-11T02:08:30;-4.10;99.90
55369;DHT22;41247;49.736;8.752;2024-01-11T02:12:12;-4.10;99.90
55369;DHT22;41247;49.736;8.752;2024-01-11T02:15:52;-4.10;99.90
55369;DHT22;41247;49.736;8.752;2024-01-11T02:19:33;-4.20;99.90
55369;DHT22;41247;49.736;8.752;2024-01-11T02:23:21;-4.20;99.90
55369;DHT22;41247;49.736;8.752;2024-01-11T02:27:05;-4.30;99.90
55369;DHT22;41247;49.736;8.752;2024-01-11T02:30:45;-4.30;99.90
55369;DHT22;41247;49.736;8.752;2024-01-11T02:34:27;-4.40;99.90
55369;DHT22;41247;49.736;8.752;2024-01-11T02:38:07;-4.50;99.90
55369;DHT22;41247;49.736;8.752;2024-01-11T02:41:50;-4.50;99.90
55369;DHT22;41247;49.736;8.752;2024-01-11T02:45:32;-4.60;99.90
55369;DHT22;41247;49.736;8.752;2024-01-11T02:49:12;-4.60;99.90
55369;DHT22;41247;49.736;8.752;2024-01-11T02:52:53;-4.70;99.90
55369;DHT22;41247;49.736;8.752;2024-01-11T02:56:33;-4.80;99.90
55369;DHT22;41247;49.736;8.752;2024-01-11T03:00:14;-4.80;99.90
55369;DHT22;41247;49.736;8.752;2024-01-11T03:03:55;-4.90;99.90
55369;DHT22;41247;49.736;8.752;2024-01-11T03:07:36;-5.00;99.90
55369;DHT22;41247;49.736;8.752;2024-01-11T03:11:17;-5.10;99.90
55369;DHT22;41247;49.736;8.752;2024-01-11T03:14:57;-5.10;99.90
55369;DHT22;41247;49.736;8.752;2024-01-11T03:18:38;-5.10;99.90
55369;DHT22;41247;49.736;8.752;2024-01-11T03:22:19;-5.20;99.90
55369;DHT22;41247;49.736;8.752;2024-01-11T03:25:59;-5.20;99.90
55369;DHT22;41247;49.736;8.752;2024-01-11T03:29:40;-5.20;99.90
55369;DHT22;41247;49.736;8.752;2024-01-11T03:33:20;-5.30;99.90
55369;DHT22;41247;49.736;8.752;2024-01-11T03:37:01;-5.30;99.90
55369;DHT22;41247;49.736;8.752;2024-01-11T03:40:41;-5.30;99.90
55369;DHT22;41247;49.736;8.752;2024-01-11T03:44:23;-5.40;99.90
55369;DHT22;41247;49.736;8.752;2024-01-11T03:48:04;-5.40;99.90
55369;DHT22;41247;49.736;8.752;2024-01-11T03:51:44;-5.50;99.90
55369;DHT22;41247;49.736;8.752;2024-01-11T03:55:25;-5.60;99.90
55369;DHT22;41247;49.736;8.752;2024-01-11T03:59:06;-5.60;99.90
55369;DHT22;41247;49.736;8.752;2024-01-11T04:02:47;-5.50;99.90
55369;DHT22;41247;49.736;8.752;2024-01-11T04:06:28;-5.50;99.90
55369;DHT22;41247;49.736;8.752;2024-01-11T04:10:09;-5.50;99.90
55369;DHT22;41247;49.736;8.752;2024-01-11T04:13:49;-5.50;99.90
55369;DHT22;41247;49.736;8.752;2024-01-11T04:17:30;-5.30;99.90
55369;DHT22;41247;49.736;8.752;2024-01-11T04:21:23;-5.20;99.90
55369;DHT22;41247;49.736;8.752;2024-01-11T04:25:04;-5.00;99.90
55369;DHT22;41247;49.736;8.752;2024-01-11T04:28:46;-4.80;99.90
55369;DHT22;41247;49.736;8.752;2024-01-11T04:32:27;-4.70;99.90
55369;DHT22;41247;49.736;8.752;2024-01-11T04:36:08;-4.60;99.90
55369;DHT22;41247;49.736;8.752;2024-01-11T04:39:49;-4.50;99.90
55369;DHT22;41247;49.736;8.752;2024-01-11T04:43:31;-4.40;99.90
55369;DHT22;41247;49.736;8.752;2024-01-11T04:47:11;-4.20;99.90
55369;DHT22;41247;49.736;8.752;2024-01-11T04:50:52;-4.20;99.90
55369;DHT22;41247;49.736;8.752;2024-01-11T04:54:32;-4.10;99.90
55369;DHT22;41247;49.736;8.752;2024-01-11T04:58:13;-4.10;99.90
55369;DHT22;41247;49.736;8.752;2024-01-11T05:01:54;-4.10;99.90
55369;DHT22;41247;49.736;8.752;2024-01-11T05:05:35;-4.00;99.90
55369;DHT22;41247;49.736;8.752;2024-01-11T05:09:15;-4.10;99.90
55369;DHT22;41247;49.736;8.752;2024-01-11T05:12:56;-4.20;99.90
55369;DHT22;41247;49.736;8.752;2024-01-11T05:16:36;-4.50;99.90
55369;DHT22;41247;49.736;8.752;2024-01-11T05:20:17;-4.70;99.90
55369;DHT22;41247;49.736;8.752;2024-01-11T05:23:57;-4.90;99.90
55369;DHT22;41247;49.736;8.752;2024-01-11T05:27:38;-5.10;99.90
55369;DHT22;41247;49.736;8.752;2024-01-11T05:31:19;-5.10;99.90
55369;DHT22;41247;49.736;8.752;2024-01-11T05:34:59;-5.20;99.90
55369;DHT22;41247;49.736;8.752;2024-01-11T05:38:41;-5.30;99.90
55369;DHT22;41247;49.736;8.752;2024-01-11T05:42:22;-5.30;99.90
55369;DHT22;41247;49.736;8.752;2024-01-11T05:46:03;-5.40;99.90
55369;DHT22;41247;49.736;8.752;2024-01-11T05:49:44;-5.50;99.90
55369;DHT22;41247;49.736;8.752;2024-01-11T05:53:24;-5.50;99.90
55369;DHT22;41247;49.736;8.752;2024-01-11T05:57:05;-5.60;99.90
55369;DHT22;41247;49.736;8.752;2024-01-11T06:00:46;-5.70;99.90
55369;DHT22;41247;49.736;8.752;2024-01-11T06:04:27;-5.80;99.90
55369;DHT22;41247;49.736;8.752;2024-01-11T06:08:07;-5.90;99.90
55369;DHT22;41247;49.736;8.752;2024-01-11T06:11:48;-5.90;99.90
55369;DHT22;41247;49.736;8.752;2024-01-11T06:15:28;-6.00;99.90
55369;DHT22;41247;49.736;8.752;2024-01-11T06:19:09;-6.00;99.90
55369;DHT22;41247;49.736;8.752;2024-01-11T06:22:52;-6.10;99.90
55369;DHT22;41247;49.736;8.752;2024-01-11T06:26:32;-6.10;99.90
55369;DHT22;41247;49.736;8.752;2024-01-11T06:30:14;-6.10;99.90
55369;DHT22;41247;49.736;8.752;2024-01-11T06:33:55;-6.10;99.90
55369;DHT22;41247;49.736;8.752;2024-01-11T06:37:35;-6.10;99.90
55369;DHT22;41247;49.736;8.752;2024-01-11T06:41:18;-6.20;99.90
55369;DHT22;41247;49.736;8.752;2024-01-11T06:44:58;-6.30;99.90
55369;DHT22;41247;49.736;8.752;2024-01-11T06:48:39;-6.40;99.90
55369;DHT22;41247;49.736;8.752;2024-01-11T06:52:20;-6.50;99.90
55369;DHT22;41247;49.736;8.752;2024-01-11T06:56:04;-6.50;99.90
55369;DHT22;41247;49.736;8.752;2024-01-11T06:59:53;-6.60;99.90
55369;DHT22;41247;49.736;8.752;2024-01-11T07:03:34;-6.60;99.90
55369;DHT22;41247;49.736;8.752;2024-01-11T07:07:15;-6.60;99.90
55369;DHT22;41247;49.736;8.752;2024-01-11T07:10:56;-6.60;99.90
55369;DHT22;41247;49.736;8.752;2024-01-11T07:14:37;-6.70;99.90
55369;DHT22;41247;49.736;8.752;2024-01-11T07:18:18;-6.60;99.90
55369;DHT22;41247;49.736;8.752;2024-01-11T07:21:58;-6.60;99.90
55369;DHT22;41247;49.736;8.752;2024-01-11T07:25:39;-6.60;99.90
55369;DHT22;41247;49.736;8.752;2024-01-11T07:29:20;-6.60;99.90
55369;DHT22;41247;49.736;8.752;2024-01-11T07:33:00;-6.70;99.90
55369;DHT22;41247;49.736;8.752;2024-01-11T07:36:41;-6.70;99.90
55369;DHT22;41247;49.736;8.752;2024-01-11T07:40:22;-6.70;99.90
55369;DHT22;41247;49.736;8.752;2024-01-11T07:44:02;-6.60;99.90
55369;DHT22;41247;49.736;8.752;2024-01-11T07:47:43;-6.60;99.90
55369;DHT22;41247;49.736;8.752;2024-01-11T07:51:24;-6.50;99.90
55369;DHT22;41247;49.736;8.752;2024-01-11T07:55:05;-6.50;99.90
55369;DHT22;41247;49.736;8.752;2024-01-11T07:58:46;-6.50;99.90
55369;DHT22;41247;49.736;8.752;2024-01-11T08:02:27;-6.40;99.90
55369;DHT22;41247;49.736;8.752;2024-01-11T08:06:07;-6.40;99.90
55369;DHT22;41247;49.736;8.752;2024-01-11T08:09:48;-6.30;99.90
55369;DHT22;41247;49.736;8.752;2024-01-11T08:13:29;-6.20;99.90
55369;DHT22;41247;49.736;8.752;2024-01-11T08:17:09;-6.20;99.90
55369;DHT22;41247;49.736;8.752;2024-01-11T08:20:50;-6.20;99.90
55369;DHT22;41247;49.736;8.752;2024-01-11T08:24:30;-6.20;99.90
55369;DHT22;41247;49.736;8.752;2024-01-11T08:28:11;-6.30;99.90
55369;DHT22;41247;49.736;8.752;2024-01-11T08:31:51;-6.30;99.90
55369;DHT22;41247;49.736;8.752;2024-01-11T08:35:32;-6.20;99.90
55369;DHT22;41247;49.736;8.752;2024-01-11T08:39:13;-6.20;99.90
55369;DHT22;41247;49.736;8.752;2024-01-11T08:42:54;-6.20;99.90
55369;DHT22;41247;49.736;8.752;2024-01-11T08:46:40;-6.30;99.90
55369;DHT22;41247;49.736;8.752;2024-01-11T08:50:21;-6.30;99.90
55369;DHT22;41247;49.736;8.752;2024-01-11T08:54:01;-6.30;99.90
55369;DHT22;41247;49.736;8.752;2024-01-11T08:57:42;-6.30;99.90
55369;DHT22;41247;49.736;8.752;2024-01-11T09:01:23;-6.30;99.90
55369;DHT22;41247;49.736;8.752;2024-01-11T09:05:04;-6.20;99.90
55369;DHT22;41247;49.736;8.752;2024-01-11T09:08:44;-6.20;99.90
55369;DHT22;41247;49.736;8.752;2024-01-11T09:12:25;-6.10;99.90
55369;DHT22;41247;49.736;8.752;2024-01-11T09:16:06;-6.10;99.90
55369;DHT22;41247;49.736;8.752;2024-01-11T09:19:46;-6.00;99.90
55369;DHT22;41247;49.736;8.752;2024-01-11T09:23:27;-5.90;99.90
55369;DHT22;41247;49.736;8.752;2024-01-11T09:27:07;-5.80;99.90
55369;DHT22;41247;49.736;8.752;2024-01-11T09:30:48;-5.70;99.90
55369;DHT22;41247;49.736;8.752;2024-01-11T09:34:28;-5.70;99.90
55369;DHT22;41247;49.736;8.752;2024-01-11T09:38:09;-5.50;99.90
55369;DHT22;41247;49.736;8.752;2024-01-11T09:42:06;-5.30;99.90
55369;DHT22;41247;49.736;8.752;2024-01-11T09:45:48;-5.20;99.90
55369;DHT22;41247;49.736;8.752;2024-01-11T09:49:30;-4.90;99.90
55369;DHT22;41247;49.736;8.752;2024-01-11T09:53:12;-4.70;99.90
55369;DHT22;41247;49.736;8.752;2024-01-11T09:56:54;-4.50;99.90
55369;DHT22;41247;49.736;8.752;2024-01-11T10:00:38;-4.40;99.90
55369;DHT22;41247;49.736;8.752;2024-01-11T10:04:18;-4.20;99.90
55369;DHT22;41247;49.736;8.752;2024-01-11T10:07:59;-4.10;99.90
55369;DHT22;41247;49.736;8.752;2024-01-11T10:11:40;-3.90;99.90
55369;DHT22;41247;49.736;8.752;2024-01-11T10:15:24;-3.70;99.90
55369;DHT22;41247;49.736;8.752;2024-01-11T10:19:04;-3.50;99.90
55369;DHT22;41247;49.736;8.752;2024-01-11T10:22:46;-3.40;99.90
55369;DHT22;41247;49.736;8.752;2024-01-11T10:26:28;-3.40;99.90
55369;DHT22;41247;49.736;8.752;2024-01-11T10:30:11;-3.30;99.90
55369;DHT22;41247;49.736;8.752;2024-01-11T10:33:54;-3.20;99.90
55369;DHT22;41247;49.736;8.752;2024-01-11T10:37:35;-3.10;99.90
55369;DHT22;41247;49.736;8.752;2024-01-11T10:41:18;-3.00;99.90
55369;DHT22;41247;49.736;8.752;2024-01-11T10:45:02;-2.90;99.90
55369;DHT22;41247;49.736;8.752;2024-01-11T10:48:44;-2.90;99.90
55369;DHT22;41247;49.736;8.752;2024-01-11T10:52:28;-2.90;99.90
55369;DHT22;41247;49.736;8.752;2024-01-11T10:56:16;-2.80;99.90
55369;DHT22;41247;49.736;8.752;2024-01-11T10:59:59;-2.80;99.90
55369;DHT22;41247;49.736;8.752;2024-01-11T11:03:43;-2.80;99.90
55369;DHT22;41247;49.736;8.752;2024-01-11T11:07:24;-2.80;99.90
55369;DHT22;41247;49.736;8.752;2024-01-11T11:11:04;-2.70;99.90
55369;DHT22;41247;49.736;8.752;2024-01-11T11:14:46;-2.60;99.90
55369;DHT22;41247;49.736;8.752;2024-01-11T11:18:27;-2.50;99.90
55369;DHT22;41247;49.736;8.752;2024-01-11T11:22:13;-2.40;99.90
55369;DHT22;41247;49.736;8.752;2024-01-11T11:25:54;-2.30;99.90
55369;DHT22;41247;49.736;8.752;2024-01-11T11:29:35;-2.20;99.90
55369;DHT22;41247;49.736;8.752;2024-01-11T11:33:25;-2.10;99.90
55369;DHT22;41247;49.736;8.752;2024-01-11T11:37:06;-2.00;99.90
55369;DHT22;41247;49.736;8.752;2024-01-11T11:40:47;-1.90;99.90
55369;DHT22;41247;49.736;8.752;2024-01-11T11:44:29;-1.80;99.90
55369;DHT22;41247;49.736;8.752;2024-01-11T11:52:14;-1.70;99.90
55369;DHT22;41247;49.736;8.752;2024-01-11T11:55:55;-1.60;99.90
55369;DHT22;41247;49.736;8.752;2024-01-11T11:59:37;-1.50;99.90
55369;DHT22;41247;49.736;8.752;2024-01-11T12:03:17;-1.40;99.90
55369;DHT22;41247;49.736;8.752;2024-01-11T12:07:00;-1.30;99.90
55369;DHT22;41247;49.736;8.752;2024-01-11T12:10:40;-1.20;99.90
55369;DHT22;41247;49.736;8.752;2024-01-11T12:14:21;-1.10;99.90
55369;DHT22;41247;49.736;8.752;2024-01-11T12:18:01;-1.00;99.90
55369;DHT22;41247;49.736;8.752;2024-01-11T12:21:42;-1.00;99.90
55369;DHT22;41247;49.736;8.752;2024-01-11T12:25:23;-0.90;99.90
55369;DHT22;41247;49.736;8.752;2024-01-11T12:29:03;-0.80;99.90
55369;DHT22;41247;49.736;8.752;2024-01-11T12:32:44;-0.80;99.90
55369;DHT22;41247;49.736;8.752;2024-01-11T12:36:25;-0.70;99.90
55369;DHT22;41247;49.736;8.752;2024-01-11T12:40:06;-0.70;99.90
55369;DHT22;41247;49.736;8.752;2024-01-11T12:43:47;-0.70;99.90
55369;DHT22;41247;49.736;8.752;2024-01-11T12:47:28;-0.70;99.90
55369;DHT22;41247;49.736;8.752;2024-01-11T12:51:09;-0.60;99.90
55369;DHT22;41247;49.736;8.752;2024-01-11T12:54:53;-0.60;99.90
55369;DHT22;41247;49.736;8.752;2024-01-11T12:58:36;-0.50;99.90
55369;DHT22;41247;49.736;8.752;2024-01-11T13:02:17;-0.50;99.90
55369;DHT22;41247;49.736;8.752;2024-01-11T13:05:58;-0.40;99.90
55369;DHT22;41247;49.736;8.752;2024-01-11T13:09:38;-0.30;99.90
55369;DHT22;41247;49.736;8.752;2024-01-11T13:13:19;-0.40;99.90
55369;DHT22;41247;49.736;8.752;2024-01-11T13:17:00;-0.40;99.90
55369;DHT22;41247;49.736;8.752;2024-01-11T13:20:40;-0.30;99.90
55369;DHT22;41247;49.736;8.752;2024-01-11T13:24:21;-0.40;99.90
55369;DHT22;41247;49.736;8.752;2024-01-11T13:28:02;-0.40;99.90
55369;DHT22;41247;49.736;8.752;2024-01-11T13:31:43;-0.40;99.90
55369;DHT22;41247;49.736;8.752;2024-01-11T13:35:24;-0.40;99.90
55369;DHT22;41247;49.736;8.752;2024-01-11T13:39:05;-0.40;99.90
55369;DHT22;41247;49.736;8.752;2024-01-11T13:42:45;-0.40;99.90
55369;DHT22;41247;49.736;8.752;2024-01-11T13:46:26;-0.40;99.90
55369;DHT22;41247;49.736;8.752;2024-01-11T13:50:07;-0.30;99.90
55369;DHT22;41247;49.736;8.752;2024-01-11T13:53:47;-0.20;99.90
55369;DHT22;41247;49.736;8.752;2024-01-11T13:57:28;-0.10;99.90
55369;DHT22;41247;49.736;8.752;2024-01-11T14:01:09;-0.10;99.90
55369;DHT22;41247;49.736;8.752;2024-01-11T14:04:49;0.00;99.90
55369;DHT22;41247;49.736;8.752;2024-01-11T14:08:30;0.10;99.90
55369;DHT22;41247;49.736;8.752;2024-01-11T14:12:10;0.10;99.90
55369;DHT22;41247;49.736;8.752;2024-01-11T14:15:51;0.20;99.90
55369;DHT22;41247;49.736;8.752;2024-01-11T14:19:32;0.20;99.90
55369;DHT22;41247;49.736;8.752;2024-01-11T14:23:12;0.20;99.90
55369;DHT22;41247;49.736;8.752;2024-01-11T14:26:53;0.30;99.90
55369;DHT22;41247;49.736;8.752;2024-01-11T14:30:33;0.40;99.90
55369;DHT22;41247;49.736;8.752;2024-01-11T14:34:14;0.40;99.90
55369;DHT22;41247;49.736;8.752;2024-01-11T14:37:55;0.40;99.90
55369;DHT22;41247;49.736;8.752;2024-01-11T14:41:35;0.40;99.90
55369;DHT22;41247;49.736;8.752;2024-01-11T14:45:16;0.40;99.90
55369;DHT22;41247;49.736;8.752;2024-01-11T14:48:56;0.40;99.90
55369;DHT22;41247;49.736;8.752;2024-01-11T14:52:37;0.30;99.90
55369;DHT22;41247;49.736;8.752;2024-01-11T14:56:18;0.30;99.90
55369;DHT22;41247;49.736;8.752;2024-01-11T14:59:59;0.20;99.90
55369;DHT22;41247;49.736;8.752;2024-01-11T15:03:39;0.10;99.90
55369;DHT22;41247;49.736;8.752;2024-01-11T15:07:20;-0.10;99.90
55369;DHT22;41247;49.736;8.752;2024-01-11T15:11:00;-0.20;99.90
55369;DHT22;41247;49.736;8.752;2024-01-11T15:14:41;-0.40;99.90
55369;DHT22;41247;49.736;8.752;2024-01-11T15:18:22;-0.50;99.90
55369;DHT22;41247;49.736;8.752;2024-01-11T15:22:02;-0.60;99.90
55369;DHT22;41247;49.736;8.752;2024-01-11T15:25:43;-0.60;99.90
55369;DHT22;41247;49.736;8.752;2024-01-11T15:29:24;-0.70;99.90
55369;DHT22;41247;49.736;8.752;2024-01-11T15:33:04;-0.80;99.90
55369;DHT22;41247;49.736;8.752;2024-01-11T15:36:45;-0.90;99.90
55369;DHT22;41247;49.736;8.752;2024-01-11T15:40:26;-0.90;99.90
55369;DHT22;41247;49.736;8.752;2024-01-11T15:44:06;-1.00;99.90
55369;DHT22;41247;49.736;8.752;2024-01-11T15:47:47;-1.00;99.90
55369;DHT22;41247;49.736;8.752;2024-01-11T15:51:27;-1.10;99.90
55369;DHT22;41247;49.736;8.752;2024-01-11T15:55:09;-1.10;99.90
55369;DHT22;41247;49.736;8.752;2024-01-11T15:58:50;-1.20;99.90
55369;DHT22;41247;49.736;8.752;2024-01-11T16:02:31;-1.20;99.90
55369;DHT22;41247;49.736;8.752;2024-01-11T16:06:12;-1.30;99.90
55369;DHT22;41247;49.736;8.752;2024-01-11T16:09:52;-1.30;99.90
55369;DHT22;41247;49.736;8.752;2024-01-11T16:13:33;-1.30;99.90
55369;DHT22;41247;49.736;8.752;2024-01-11T16:17:13;-1.40;99.90
55369;DHT22;41247;49.736;8.752;2024-01-11T16:20:55;-1.40;99.90
55369;DHT22;41247;49.736;8.752;2024-01-11T16:24:36;-1.50;99.90
55369;DHT22;41247;49.736;8.752;2024-01-11T16:28:16;-1.50;99.90
55369;DHT22;41247;49.736;8.752;2024-01-11T16:31:57;-1.50;99.90
55369;DHT22;41247;49.736;8.752;2024-01-11T16:35:38;-1.50;99.90
55369;DHT22;41247;49.736;8.752;2024-01-11T16:39:18;-1.60;99.90
55369;DHT22;41247;49.736;8.752;2024-01-11T16:42:59;-1.60;99.90
55369;DHT22;41247;49.736;8.752;2024-01-11T16:46:40;-1.70;99.90
55369;DHT22;41247;49.736;8.752;2024-01-11T16:50:20;-1.70;99.90
55369;DHT22;41247;49.736;8.752;2024-01-11T16:54:01;-1.70;99.90
55369;DHT22;41247;49.736;8.752;2024-01-11T16:57:41;-1.80;99.90
55369;DHT22;41247;49.736;8.752;2024-01-11T17:01:22;-1.80;99.90
55369;DHT22;41247;49.736;8.752;2024-01-11T17:05:02;-1.90;99.90
55369;DHT22;41247;49.736;8.752;2024-01-11T17:08:44;-2.00;99.90
55369;DHT22;41247;49.736;8.752;2024-01-11T17:12:28;-2.10;99.90
55369;DHT22;41247;49.736;8.752;2024-01-11T17:16:08;-2.10;99.90
55369;DHT22;41247;49.736;8.752;2024-01-11T17:19:56;-2.10;99.90
55369;DHT22;41247;49.736;8.752;2024-01-11T17:23:37;-2.10;99.90
55369;DHT22;41247;49.736;8.752;2024-01-11T17:27:17;-2.20;99.90
55369;DHT22;41247;49.736;8.752;2024-01-11T17:30:58;-2.20;99.90
55369;DHT22;41247;49.736;8.752;2024-01-11T17:34:38;-2.20;99.90
55369;DHT22;41247;49.736;8.752;2024-01-11T17:38:19;-2.20;99.90
55369;DHT22;41247;49.736;8.752;2024-01-11T17:42:00;-2.20;99.90
55369;DHT22;41247;49.736;8.752;2024-01-11T17:45:40;-2.20;99.90
55369;DHT22;41247;49.736;8.752;2024-01-11T17:49:21;-2.20;99.90
55369;DHT22;41247;49.736;8.752;2024-01-11T17:53:01;-2.20;99.90
55369;DHT22;41247;49.736;8.752;2024-01-11T17:56:42;-2.20;99.90
55369;DHT22;41247;49.736;8.752;2024-01-11T18:00:22;-2.20;99.90
55369;DHT22;41247;49.736;8.752;2024-01-11T18:04:08;-2.20;99.90
55369;DHT22;41247;49.736;8.752;2024-01-11T18:07:48;-2.30;99.90
55369;DHT22;41247;49.736;8.752;2024-01-11T18:11:29;-2.30;99.90
55369;DHT22;41247;49.736;8.752;2024-01-11T18:15:10;-2.30;99.90
55369;DHT22;41247;49.736;8.752;2024-01-11T18:18:51;-2.20;99.90
55369;DHT22;41247;49.736;8.752;2024-01-11T18:22:32;-2.10;99.90
55369;DHT22;41247;49.736;8.752;2024-01-11T18:26:12;-2.00;99.90
55369;DHT22;41247;49.736;8.752;2024-01-11T18:29:53;-2.00;99.90
55369;DHT22;41247;49.736;8.752;2024-01-11T18:33:35;-2.00;99.90
55369;DHT22;41247;49.736;8.752;2024-01-11T18:37:16;-1.90;99.90
55369;DHT22;41247;49.736;8.752;2024-01-11T18:40:56;-1.90;99.90
55369;DHT22;41247;49.736;8.752;2024-01-11T18:44:37;-1.90;99.90
55369;DHT22;41247;49.736;8.752;2024-01-11T18:48:18;-1.90;99.90
55369;DHT22;41247;49.736;8.752;2024-01-11T18:51:58;-1.90;99.90
55369;DHT22;41247;49.736;8.752;2024-01-11T18:55:40;-1.90;99.90
55369;DHT22;41247;49.736;8.752;2024-01-11T18:59:21;-1.90;99.90
55369;DHT22;41247;49.736;8.752;2024-01-11T19:03:02;-1.90;99.90
55369;DHT22;41247;49.736;8.752;2024-01-11T19:06:42;-1.90;99.90
55369;DHT22;41247;49.736;8.752;2024-01-11T19:10:23;-1.80;99.90
55369;DHT22;41247;49.736;8.752;2024-01-11T19:14:03;-1.80;99.90
55369;DHT22;41247;49.736;8.752;2024-01-11T19:17:44;-1.80;99.90
55369;DHT22;41247;49.736;8.752;2024-01-11T19:21:25;-1.80;99.90
55369;DHT22;41247;49.736;8.752;2024-01-11T19:25:06;-1.80;99.90
55369;DHT22;41247;49.736;8.752;2024-01-11T19:28:46;-1.80;99.90
55369;DHT22;41247;49.736;8.752;2024-01-11T19:32:27;-1.80;99.90
55369;DHT22;41247;49.736;8.752;2024-01-11T19:36:08;-1.80;99.90
55369;DHT22;41247;49.736;8.752;2024-01-11T19:39:48;-1.70;99.90
55369;DHT22;41247;49.736;8.752;2024-01-11T19:43:29;-1.70;99.90
55369;DHT22;41247;49.736;8.752;2024-01-11T19:47:09;-1.70;99.90
55369;DHT22;41247;49.736;8.752;2024-01-11T19:50:50;-1.70;99.90
55369;DHT22;41247;49.736;8.752;2024-01-11T19:54:31;-1.80;99.90
55369;DHT22;41247;49.736;8.752;2024-01-11T19:58:11;-1.80;99.90
55369;DHT22;41247;49.736;8.752;2024-01-11T20:01:52;-1.80;99.90
55369;DHT22;41247;49.736;8.752;2024-01-11T20:05:32;-1.80;99.90
55369;DHT22;41247;49.736;8.752;2024-01-11T20:09:13;-1.80;99.90
55369;DHT22;41247;49.736;8.752;2024-01-11T20:12:53;-1.80;99.90
55369;DHT22;41247;49.736;8.752;2024-01-11T20:16:35;-1.80;99.90
55369;DHT22;41247;49.736;8.752;2024-01-11T20:20:16;-1.80;99.90
55369;DHT22;41247;49.736;8.752;2024-01-11T20:23:56;-1.80;99.90
55369;DHT22;41247;49.736;8.752;2024-01-11T20:27:37;-1.80;99.90
55369;DHT22;41247;49.736;8.752;2024-01-11T20:31:17;-1.90;99.90
55369;DHT22;41247;49.736;8.752;2024-01-11T20:34:58;-1.90;99.90
55369;DHT22;41247;49.736;8.752;2024-01-11T20:38:38;-1.90;99.90
55369;DHT22;41247;49.736;8.752;2024-01-11T20:42:19;-2.00;99.90
55369;DHT22;41247;49.736;8.752;2024-01-11T20:46:00;-2.00;99.90
55369;DHT22;41247;49.736;8.752;2024-01-11T20:49:40;-2.00;99.90
55369;DHT22;41247;49.736;8.752;2024-01-11T20:53:21;-2.10;99.90
55369;DHT22;41247;49.736;8.752;2024-01-11T20:57:01;-2.10;99.90
55369;DHT22;41247;49.736;8.752;2024-01-11T21:00:42;-2.20;99.90
55369;DHT22;41247;49.736;8.752;2024-01-11T21:04:22;-2.30;99.90
55369;DHT22;41247;49.736;8.752;2024-01-11T21:08:03;-2.30;99.90
55369;DHT22;41247;49.736;8.752;2024-01-11T21:11:44;-2.40;99.90
55369;DHT22;41247;49.736;8.752;2024-01-11T21:15:25;-2.40;99.90
55369;DHT22;41247;49.736;8.752;2024-01-11T21:19:05;-2.50;99.90
55369;DHT22;41247;49.736;8.752;2024-01-11T21:22:46;-2.50;99.90
55369;DHT22;41247;49.736;8.752;2024-01-11T21:26:27;-2.60;99.90
55369;DHT22;41247;49.736;8.752;2024-01-11T21:30:08;-2.60;99.90
55369;DHT22;41247;49.736;8.752;2024-01-11T21:33:49;-2.70;99.90
55369;DHT22;41247;49.736;8.752;2024-01-11T21:37:30;-2.70;99.90
55369;DHT22;41247;49.736;8.752;2024-01-11T21:41:11;-2.80;99.90
55369;DHT22;41247;49.736;8.752;2024-01-11T21:44:51;-2.90;99.90
55369;DHT22;41247;49.736;8.752;2024-01-11T21:48:32;-2.90;99.90
55369;DHT22;41247;49.736;8.752;2024-01-11T21:52:13;-3.00;99.90
55369;DHT22;41247;49.736;8.752;2024-01-11T21:55:53;-3.00;99.90
55369;DHT22;41247;49.736;8.752;2024-01-11T21:59:35;-3.10;99.90
55369;DHT22;41247;49.736;8.752;2024-01-11T22:03:15;-3.20;99.90
55369;DHT22;41247;49.736;8.752;2024-01-11T22:06:56;-3.20;99.90
55369;DHT22;41247;49.736;8.752;2024-01-11T22:10:36;-3.20;99.90
55369;DHT22;41247;49.736;8.752;2024-01-11T22:14:17;-3.20;99.90
55369;DHT22;41247;49.736;8.752;2024-01-11T22:17:57;-3.30;99.90
55369;DHT22;41247;49.736;8.752;2024-01-11T22:21:38;-3.30;99.90
55369;DHT22;41247;49.736;8.752;2024-01-11T22:25:19;-3.30;99.90
55369;DHT22;41247;49.736;8.752;2024-01-11T22:29:00;-3.40;99.90
55369;DHT22;41247;49.736;8.752;2024-01-11T22:32:40;-3.40;99.90
55369;DHT22;41247;49.736;8.752;2024-01-11T22:36:21;-3.40;99.90
55369;DHT22;41247;49.736;8.752;2024-01-11T22:40:02;-3.40;99.90
55369;DHT22;41247;49.736;8.752;2024-01-11T22:43:42;-3.40;99.90
55369;DHT22;41247;49.736;8.752;2024-01-11T22:47:24;-3.40;99.90
55369;DHT22;41247;49.736;8.752;2024-01-11T22:51:04;-3.50;99.90
55369;DHT22;41247;49.736;8.752;2024-01-11T22:54:45;-3.50;99.90
55369;DHT22;41247;49.736;8.752;2024-01-11T22:58:26;-3.60;99.90
55369;DHT22;41247;49.736;8.752;2024-01-11T23:02:06;-3.60;99.90
55369;DHT22;41247;49.736;8.752;2024-01-11T23:05:47;-3.60;99.90
55369;DHT22;41247;49.736;8.752;2024-01-11T23:09:28;-3.60;99.90
55369;DHT22;41247;49.736;8.752;2024-01-11T23:13:08;-3.60;99.90
55369;DHT22;41247;49.736;8.752;2024-01-11T23:16:49;-3.60;99.90
55369;DHT22;41247;49.736;8.752;2024-01-11T23:20:30;-3.60;99.90
55369;DHT22;41247;49.736;8.752;2024-01-11T23:24:11;-3.60;99.90